Ashfield, Massachusetts
Current Conditions -  °F | °C
As of 7:52 AM on Friday 19 Dec 2014 (Local Time) from KAQW Reporting Station
Overcast Overcast  
Wind Chill: 20°   Ceiling: 2100
Heat Index: 29°   Visibility: 10mi
Dew Point: 22°   Wind: 10mph
Humidity: 75%   Direction: 260°W
Pressure: 29.97"   Gusts: NA
Location:  42.53°N, 72.79°W
Report Text: KAQW 191252Z AUTO 26009KT 10SM OVC021 M02/M06 A2997 RMK AO2 SLP157 T10171056
Loading
Personal Weather Stations






























Interactive Weather Map New forecast layout! Learn more

10-Day Weather Forecast

Advertisements
Track Severe Weather on mobile